Station: Yampi Sound (Defence)

  Atmospheric Gas Attenuation - ITU Rec 676-11   --------------- db/100km ---------------
Date Time Temp RH % AH g/m3 Dew Point Wind Direction Speed kph Gust kph Barometer mB Rainfall Since 9am 24GHz 47GHz 76GHz 122GHz 134GHz 241GHz
07 06:20 6.3 79 5.85 2.9 0 0 1013.1 0 14.0 23.5 32.2 84.0 70.3 239.0
07 06:10 6.4 78 5.82 2.8 0 0 1013.1 0 13.9 23.5 32.0 83.6 69.8 237.3
07 06:00 6.3 77 5.7 2.6 0 0 1018 0 13.7 23.5 31.8 82.9 68.6 233.0
07 05:50 6.5 75 5.63 2.5 0 0 1013.1 0 13.5 23.1 31.2 81.5 67.2 228.3
07 05:40 6.7 75 5.7 2.7 0 0 1013.1 0 13.7 23.2 31.4 82.0 68.0 230.9
07 05:30 6.5 76 5.7 2.6 0 4 1017.8 0 13.7 23.4 31.7 82.7 68.4 232.4
07 05:20 6.6 75 5.66 2.5 4 4 1013.1 0 13.6 23.1 31.3 81.7 67.5 229.4
07 05:10 7.1 74 5.77 2.9 0 2 1013.1 0 13.8 23.2 31.5 82.3 68.5 232.9
07 05:00 7.2 75 5.89 3.1 0 0 1017.5 0 14.1 23.5 32.2 83.9 70.3 239.0
07 04:50 7.2 73 5.73 2.7 0 0 1013.1 0 13.7 23.1 31.3 81.8 67.9 230.8
07 04:40 7.3 73 5.77 2.8 4 4 1013.1 0 13.8 23.1 31.5 82.1 68.4 232.3
07 04:30 7.8 71 5.8 2.9 0 2 1017.5 0 13.8 23.2 31.6 82.3 68.6 233.1
07 04:20 8.1 69 5.74 2.7 2 2 1013.1 0 13.7 22.9 31.0 81.0 67.3 228.6
07 04:10 8.6 67 5.76 2.8 4 4 1013.1 0 13.7 22.8 30.9 80.7 67.1 228.1
07 04:00 8.9 65 5.7 2.7 2 6 1017.6 0 13.6 22.8 30.8 80.2 66.4 225.5
07 03:40 9.4 64 5.79 2.9 0 0 1013.1 0 13.8 22.6 30.7 80.2 66.8 227.1
07 03:10 11.2 52 5.27 1.9 6 7 1013.1 0 12.6 21.4 28.1 73.3 59.0 199.9
07 03:00 11.2 53 5.37 2 4 6 1017.6 0 12.8 21.7 28.7 74.6 60.4 205.0
07 02:50 9.7 63 5.81 3 6 6 1013.1 0 13.8 22.6 30.7 80.1 66.8 227.2
07 02:40 9.9 61 5.7 2.7 4 4 1013.1 0 13.6 22.4 30.2 78.8 65.3 221.8
07 02:30 10 56 5.26 1.6 0 0 1017.5 0 12.6 21.8 28.7 74.7 60.0 203.3
07 02:20 10.8 55 5.44 2.1 0 0 1013.1 0 13.0 21.8 28.9 75.3 61.3 208.2
07 02:10 11.7 56 5.86 3.2 4 4 1013.1 0 13.8 22.2 30.1 78.6 65.7 223.7
07 02:00 12 51 5.44 2.2 2 4 1017.4 0 12.9 21.6 28.6 74.6 60.7 205.9
07 01:50 12.7 45 5.01 1 2 2 1013.1 0 12.0 20.7 26.7 69.5 54.8 185.6
07 01:30 13.9 41 4.92 0.9 4 6 1017.4 0 11.8 20.5 26.2 68.0 53.2 179.9
07 01:20 15.6 33 4.39 -0.6 4 4 1013.1 0 10.6 19.2 23.7 61.5 46.1 155.0
07 01:10 15.9 32 4.33 -0.8 6 7 1013.1 0 10.5 19.1 23.4 60.8 45.2 152.2
07 01:00 16.3 32 4.44 -0.4 6 9 1017.3 0 10.7 19.3 23.8 61.7 46.4 156.2
07 00:50 16.7 31 4.41 -0.5 6 7 1013.1 0 10.6 19.0 23.5 60.9 45.7 153.7
07 00:40 16.8 32 4.57 0 6 7 1013.1 0 10.9 19.2 24.0 62.2 47.3 159.6
07 00:30 16.9 33 4.75 0.5 7 15 1017.2 0 11.3 19.6 24.7 64.0 49.4 166.9
07 00:20 15.8 38 5.12 1.5 6 7 1013.1 0 12.1 20.2 26.1 67.9 54.0 183.0
07 00:10 13.1 46 5.25 1.7 4 6 1013.1 0 12.5 21.0 27.4 71.4 57.4 194.5
07 00:00 14.5 43 5.35 2.1 4 7 1017.2 0 12.7 20.9 27.5 71.4 57.7 195.9
06 23:50 14.5 46 5.72 3 7 9 1013.1 0 13.4 21.3 28.6 74.6 61.8 210.3
06 23:40 13.4 50 5.81 3.4 4 6 1013.1 0 13.7 21.7 29.3 76.5 63.7 216.9
06 23:30 13 52 5.9 3.4 4 9 1017.1 0 13.9 22.1 30.0 78.1 65.4 222.6
06 23:20 13 51 5.78 3.1 4 4 1013.1 0 13.6 21.7 29.4 76.6 63.7 216.8
06 23:10 12.5 54 5.94 3.4 2 4 1013.1 0 14.0 22.1 30.1 78.6 66.0 224.9
06 23:00 12.8 57 6.39 4.5 4 6 1017.1 0 14.9 22.8 31.8 83.1 71.5 244.1
06 22:50 13.2 61 7 5.8 4 4 1013.1 0 16.2 23.5 33.8 88.5 78.5 268.6
06 22:40 13 62 7.03 5.9 4 6 1013.1 0 16.3 23.6 34.0 89.0 79.0 270.6
06 22:30 13.1 63 7.19 6.2 4 6 1017.1 0 16.6 24.0 34.7 90.9 81.2 278.3
06 22:20 13.4 58 6.74 5.3 6 6 1013.1 0 15.6 23.1 32.7 85.6 75.0 256.6
06 22:10 13.2 56 6.43 4.8 4 6 1013.1 0 15.0 22.7 31.7 82.7 71.4 243.8
06 22:00 12.9 61 6.88 5.6 2 6 1017.1 0 16.0 23.6 33.6 88.0 77.5 265.2
06 21:50 13 60 6.8 5.4 2 2 1013.1 0 15.8 23.3 33.1 86.7 76.2 260.5
06 21:40 13.3 59 6.82 5.4 2 4 1013.1 0 15.8 23.2 33.1 86.5 76.1 260.4
06 21:30 13.1 57 6.5 4.8 4 6 1017 0 15.1 22.9 32.1 83.9 72.6 248.0
06 21:20 12.7 60 6.68 5.1 4 4 1013.1 0 15.5 23.2 32.8 85.8 75.0 256.2
06 21:10 12.8 58 6.5 4.7 2 4 1013.1 0 15.2 22.9 32.1 83.9 72.6 248.1
06 21:00 13.2 60 6.89 5.6 0 0 1017 0 16.0 23.5 33.6 87.7 77.4 264.6
06 20:50 13.4 59 6.86 5.5 0 0 1013.1 0 15.9 23.3 33.2 86.8 76.5 261.8
06 20:40 13.7 59 6.99 5.8 0 0 1013.1 0 16.2 23.4 33.6 87.8 77.9 266.5
06 20:30 14 57 6.88 5.6 0 0 1016.9 0 15.9 23.3 33.2 86.7 76.4 261.6
06 20:20 14.4 56 6.92 5.7 0 0 1013.1 0 16.0 23.1 33.0 86.3 76.3 261.1
06 20:10 14.8 58 7.35 6.6 0 0 1013.1 0 16.9 23.6 34.5 90.2 81.2 278.4
06 20:00 15.2 49 6.36 4.6 0 0 1016.6 0 14.8 22.2 30.8 80.3 69.0 235.6
06 19:50 15.5 46 6.08 3.9 0 0 1013.1 0 14.2 21.6 29.5 77.1 65.2 222.5
06 19:40 15.9 46 6.23 4.3 4 6 1013.1 0 14.5 21.7 29.9 78.1 66.7 227.5
06 19:30 16.1 42 5.76 3.2 4 6 1016.3 0 13.5 21.1 28.3 73.8 61.2 208.4
06 19:20 16.8 40 5.72 3.1 4 4 1013.1 0 13.4 20.8 27.8 72.5 60.1 204.5
06 19:10 17.3 39 5.75 3.2 2 2 1013.1 0 13.4 20.7 27.8 72.3 60.0 204.4
06 19:00 17.5 35 5.22 1.9 2 6 1016.2 0 12.3 20.1 26.0 67.6 54.1 183.7
06 18:50 18.1 34 5.25 2 4 4 1013.1 0 12.3 19.9 25.8 67.2 53.9 183.0
06 18:40 18.7 33 5.28 2.1 4 4 1013.1 0 12.4 19.8 25.7 66.9 53.9 182.8
06 18:30 18.7 32 5.12 1.7 6 7 1015.7 0 12.0 19.6 25.3 65.7 52.2 177.1
06 18:20 19.8 37 6.32 4.7 4 4 1013.1 0 14.5 20.9 28.8 75.3 64.5 220.5
06 18:10 20.9 30 5.46 2.7 2 4 1013.1 0 12.7 19.6 25.6 66.7 54.3 184.8
06 18:00 23.3 21 4.39 -0.2 4 6 1015.5 0 10.4 17.8 21.7 56.2 42.0 141.7
06 17:50 24.1 20 4.38 -0.3 4 4 1013.1 0 10.3 17.6 21.4 55.5 41.5 139.7
06 17:40 24.7 19 4.3 -0.5 6 6 1013.1 0 10.2 17.4 21.0 54.4 40.4 136.0
06 17:30 25.4 18 4.24 -0.6 7 11 1015.1 0 10.0 17.2 20.8 53.7 39.5 133.1
06 17:20 25.8 18 4.33 -0.3 6 7 1013.1 0 10.2 17.2 20.9 54.0 40.1 135.3
06 17:10 26.6 16 4.03 -1.3 6 7 1013.1 0 9.5 16.7 19.8 51.2 36.9 124.1
06 17:00 27.1 16 4.14 -0.9 9 19 1014.9 0 9.8 16.8 20.1 51.8 37.8 127.2
06 16:50 27.5 16 4.23 -0.6 6 7 1013.1 0 9.9 16.8 20.2 52.2 38.4 129.3
06 16:40 27.7 15 4.01 -1.3 11 15 1013.1 0 9.5 16.5 19.5 50.4 36.3 121.8
06 16:30 28.1 15 4.1 -0.9 9 15 1014.7 0 9.7 16.6 19.7 50.9 37.0 124.4
06 16:20 28.1 15 4.1 -1 13 15 1013.1 0 9.7 16.5 19.7 50.8 36.9 124.2
06 16:10 28.5 15 4.19 -0.7 15 17 1013.1 0 9.8 16.6 19.8 51.3 37.6 126.6
06 16:00 28.2 14 3.85 -1.8 15 22 1014.6 0 9.1 16.3 19.0 49.0 34.7 116.1
06 15:50 28.6 14 3.93 -1.5 13 15 1013.1 0 9.3 16.3 19.1 49.3 35.2 118.0
06 15:40 28.5 14 3.91 -1.6 7 9 1013.1 0 9.3 16.3 19.1 49.2 35.0 117.5
06 15:30 28.8 14 3.98 -1.3 15 22 1014.5 0 9.4 16.3 19.2 49.6 35.6 119.5
06 15:20 28.8 15 4.26 -0.4 15 19 1013.1 0 10.0 16.6 20.0 51.6 38.1 128.4
06 15:10 28.6 15 4.22 -0.6 7 11 1013.1 0 9.9 16.6 19.9 51.4 37.8 127.4
06 15:00 28.9 15 4.29 -0.3 11 22 1014.7 0 10.0 16.7 20.1 51.9 38.4 129.4
06 14:50 28.7 15 4.24 -0.5 17 20 1013.1 0 9.9 16.6 19.9 51.5 38.0 127.9
06 14:40 29.3 14 4.09 -1 7 9 1013.1 0 9.6 16.3 19.4 50.0 36.3 122.2
06 14:30 29.3 15 4.38 0 13 24 1015 0 10.2 16.7 20.2 52.3 39.0 131.8
06 14:20 29.2 15 4.36 -0.1 7 13 1013.1 0 10.2 16.7 20.1 52.1 38.8 131.0
06 14:10 28.6 15 4.22 -0.6 7 9 1013.1 0 9.9 16.6 19.9 51.4 37.8 127.4
06 14:00 29 15 4.31 -0.2 11 19 1015.4 0 10.1 16.7 20.1 52.0 38.6 130.0
06 13:50 28.7 15 4.24 -0.5 9 13 1013.1 0 9.9 16.6 19.9 51.5 38.0 127.9
06 13:40 28.4 15 4.17 -0.7 9 17 1013.1 0 9.8 16.6 19.8 51.2 37.4 126.1
06 13:30 28.7 16 4.52 0.4 11 22 1015.7 0 10.5 17.0 20.8 53.8 40.7 137.3
06 13:20 28.5 16 4.47 0.2 7 11 1013.1 0 10.4 16.9 20.6 53.3 40.2 135.7
06 13:10 28.7 18 5.09 2 11 15 1013.1 0 11.7 17.6 22.3 57.9 45.9 155.9

Last Refresh: 07-Aug-2020 08:05:04

Most of the information presented on this site is sourced from the Bureau of Meteorology.  Copyright in all material sourced from the Bureau of Meteorology resides with the Commonwealth of Australia.